createdAt,value
2019-01-16T00:03:12.194Z,6.92
2019-01-16T00:13:17.015Z,7.58
2019-01-16T00:23:24.527Z,5.33
2019-01-16T00:33:41.395Z,5.15
2019-01-16T00:43:48.976Z,5.37
2019-01-16T00:54:05.951Z,5.30
2019-01-16T01:04:26.687Z,4.60
2019-01-16T01:14:37.248Z,4.72
2019-01-16T01:24:47.600Z,3.70
2019-01-16T01:34:52.398Z,5.03
2019-01-16T01:45:09.396Z,5.42
2019-01-16T01:55:14.173Z,6.05
2019-01-16T02:05:24.938Z,6.67
2019-01-16T02:15:29.747Z,5.87
2019-01-16T02:25:50.851Z,5.87
2019-01-16T02:36:11.844Z,5.45
2019-01-16T02:46:16.621Z,4.35
2019-01-16T02:56:37.918Z,4.95
2019-01-16T03:06:42.695Z,8.35
2019-01-16T03:16:59.555Z,5.97
2019-01-16T03:27:10.046Z,6.42
2019-01-16T03:37:14.821Z,5.97
2019-01-16T03:47:36.286Z,6.15
2019-01-16T03:57:41.066Z,5.67
2019-01-16T04:07:45.849Z,4.50
2019-01-16T04:17:59.687Z,5.67
2019-01-16T04:28:10.243Z,5.67
2019-01-16T04:38:20.794Z,7.25
2019-01-16T04:48:25.573Z,7.10
2019-01-16T04:58:48.717Z,4.92
2019-01-16T05:08:59.608Z,6.67
2019-01-16T05:19:20.926Z,7.90
2019-01-16T05:29:42.321Z,14.83
2019-01-16T05:39:47.085Z,12.10
2019-01-16T05:50:00.774Z,7.45
2019-01-16T06:00:08.164Z,9.08
2019-01-16T06:10:29.415Z,34.92
2019-01-16T06:20:50.599Z,31.48
2019-01-16T06:30:58.004Z,18.52
2019-01-16T06:41:05.779Z,15.93
2019-01-16T06:51:10.560Z,27.93
2019-01-16T07:01:15.282Z,31.55
2019-01-16T07:11:25.615Z,20.12
2019-01-16T07:21:45.333Z,14.05
2019-01-16T07:31:50.055Z,19.12
2019-01-16T07:42:07.001Z,24.80
2019-01-16T07:52:29.772Z,30.37
2019-01-16T08:02:49.463Z,25.12
2019-01-16T08:13:10.391Z,22.52
2019-01-16T08:23:20.630Z,18.25
2019-01-16T08:33:25.343Z,13.22
2019-01-16T08:43:44.968Z,16.60
2019-01-16T08:53:52.548Z,15.95
2019-01-16T09:04:03.426Z,14.65
2019-01-16T09:14:17.155Z,13.03
2019-01-16T09:24:24.503Z,14.28
2019-01-16T09:34:44.451Z,11.93
2019-01-16T09:45:04.116Z,15.58
2019-01-16T09:55:27.459Z,14.28
2019-01-16T10:05:50.172Z,14.47
2019-01-16T10:16:02.334Z,21.05
2019-01-16T10:26:09.519Z,16.30
2019-01-16T10:36:17.248Z,17.67
2019-01-16T10:46:40.035Z,15.53
2019-01-16T10:56:44.764Z,13.00
2019-01-16T11:06:49.627Z,12.90
2019-01-16T11:16:57.098Z,11.28
2019-01-16T11:27:19.883Z,18.12
2019-01-16T11:37:25.175Z,17.23
2019-01-16T11:47:30.789Z,15.13
2019-01-16T11:57:38.239Z,20.20
2019-01-16T12:07:52.031Z,12.85
2019-01-16T12:18:02.766Z,20.88
2019-01-16T12:28:10.527Z,35.15
2019-01-16T12:38:15.360Z,32.42
2019-01-16T12:48:25.797Z,31.25
2019-01-16T12:58:33.454Z,30.80
2019-01-16T13:08:40.848Z,31.50
2019-01-16T13:18:45.600Z,25.15
2019-01-16T13:28:50.476Z,35.73
2019-01-16T13:38:55.204Z,28.98
2019-01-16T13:49:02.768Z,28.38
2019-01-16T13:59:07.630Z,33.10
2019-01-16T14:09:30.844Z,30.80
2019-01-16T14:19:38.527Z,29.50
2019-01-16T14:29:57.834Z,34.75
2019-01-16T14:40:02.598Z,33.35
2019-01-16T14:50:28.819Z,29.50
2019-01-16T15:00:36.313Z,26.82
2019-01-16T15:10:47.130Z,28.12
2019-01-16T15:20:57.568Z,28.80
2019-01-16T15:31:02.419Z,30.37
2019-01-16T15:41:07.161Z,31.73
2019-01-16T15:51:30.264Z,33.42
2019-01-16T16:01:51.527Z,34.50
2019-01-16T16:12:05.231Z,34.03
2019-01-16T16:22:24.928Z,36.33
2019-01-16T16:32:38.859Z,39.20
2019-01-16T16:42:55.581Z,36.20
2019-01-16T16:53:00.328Z,34.50
2019-01-16T17:03:11.110Z,34.25
2019-01-16T17:13:32.139Z,35.92
2019-01-16T17:23:39.800Z,34.25
2019-01-16T17:33:44.555Z,35.63
2019-01-16T17:43:52.304Z,33.30
2019-01-16T17:54:03.219Z,33.42
2019-01-16T18:04:13.767Z,40.67
2019-01-16T18:14:34.823Z,35.10
2019-01-16T18:24:39.556Z,30.17
2019-01-16T18:34:44.319Z,29.23
2019-01-16T18:45:04.306Z,27.05
2019-01-16T18:55:26.138Z,20.92
2019-01-16T19:05:39.857Z,22.30
2019-01-16T19:16:03.003Z,23.77
2019-01-16T19:26:22.563Z,19.73
2019-01-16T19:36:33.414Z,24.52
2019-01-16T19:46:54.240Z,30.55
2019-01-16T19:57:15.557Z,26.30
2019-01-16T20:07:29.362Z,29.35
2019-01-16T20:17:39.860Z,26.55
2019-01-16T20:27:44.668Z,23.65
2019-01-16T20:40:30.348Z,23.92
2019-01-16T20:50:51.045Z,27.75
2019-01-16T21:01:12.868Z,28.38
2019-01-16T21:11:21.243Z,29.70
2019-01-16T21:21:32.554Z,30.08
2019-01-16T21:31:38.164Z,27.45
2019-01-16T21:42:01.771Z,25.90
2019-01-16T21:52:23.395Z,29.03
2019-01-16T22:02:31.799Z,25.82
2019-01-16T22:12:40.570Z,26.27
2019-01-16T22:22:46.170Z,25.50
2019-01-16T22:33:10.018Z,26.07
2019-01-16T22:43:15.619Z,28.85
2019-01-16T22:53:23.916Z,41.80
2019-01-16T23:03:45.971Z,57.55
2019-01-16T23:14:07.861Z,30.48
2019-01-16T23:24:22.674Z,27.60
2019-01-16T23:34:37.185Z,35.70
2019-01-16T23:44:51.708Z,34.13
2019-01-16T23:55:12.270Z,28.30
